Terminal Aerodrome Forecast
Issued by NWS Jackson, MS

Current Version | Previous Version | Text Only | Print | Product List | Glossary On
Versions: 1 2 3 4 5 6 7 8 9 10 11 12 13 14
433
FTUS44 KJAN 211725
TAFHBG
TAF
KHBG 211725Z 2118/2218 14010KT P6SM SCT040 SCT120
     FM220630 15007KT P6SM VCSH BKN007 OVC020
     FM221500 18009KT 5SM SHRA VCTS BKN015CB OVC025=

USA.gov is the U.S. government's official web portal to all federal, state and local government web resources and services.